createdAt,value
2022-12-08T00:02:18.826Z,97819.63
2022-12-08T00:05:04.479Z,97814.44
2022-12-08T00:07:49.591Z,97807.53
2022-12-08T00:10:47.161Z,97795.44
2022-12-08T00:13:02.828Z,97795.47
2022-12-08T00:15:29.521Z,97795.44
2022-12-08T00:17:56.149Z,97784.19
2022-12-08T00:20:22.801Z,97784.19
2022-12-08T00:22:49.407Z,97791.09
2022-12-08T00:25:16.276Z,97772.13
2022-12-08T00:27:42.905Z,97780.75
2022-12-08T00:30:09.932Z,97784.19
2022-12-08T00:32:37.989Z,97778.16
2022-12-08T00:35:05.137Z,97772.91
2022-12-08T00:37:31.950Z,97770.34
2022-12-08T00:39:58.552Z,97772.03
2022-12-08T00:42:25.106Z,97777.22
2022-12-08T00:44:51.692Z,97774.63
2022-12-08T00:47:23.448Z,97772.06
2022-12-08T00:49:52.162Z,97767.75
2022-12-08T00:52:18.905Z,97768.63
2022-12-08T00:54:45.627Z,97766.88
2022-12-08T00:57:12.239Z,97770.34
2022-12-08T00:59:39.631Z,97769.44
2022-12-08T01:02:06.275Z,97764.28
2022-12-08T01:04:32.924Z,97772.06
2022-12-08T01:06:59.561Z,97770.34
2022-12-08T01:09:26.155Z,97766.00
2022-12-08T01:11:52.799Z,97763.41
2022-12-08T01:14:19.381Z,97756.47
2022-12-08T01:16:46.106Z,97754.78
2022-12-08T01:19:15.585Z,97766.88
2022-12-08T01:21:43.138Z,97761.69
2022-12-08T01:24:15.309Z,97759.16
2022-12-08T01:26:41.955Z,97771.22
2022-12-08T01:29:09.100Z,97766.88
2022-12-08T01:31:36.010Z,97770.38
2022-12-08T01:34:02.595Z,97775.56
2022-12-08T01:36:31.367Z,97775.59
2022-12-08T01:39:00.181Z,97772.09
2022-12-08T01:41:30.703Z,97775.53
2022-12-08T01:44:01.645Z,97777.25
2022-12-08T01:46:30.546Z,97768.59
2022-12-08T01:49:03.682Z,97766.91
2022-12-08T01:51:35.525Z,97771.16
2022-12-08T01:54:05.258Z,97771.19
2022-12-08T01:56:41.689Z,97762.56
2022-12-08T01:59:09.301Z,97774.59
2022-12-08T02:01:35.982Z,97766.84
2022-12-08T02:04:04.693Z,97757.28
2022-12-08T02:06:37.038Z,97754.69
2022-12-08T02:09:03.869Z,97761.69
2022-12-08T02:11:30.500Z,97747.81
2022-12-08T02:13:58.967Z,97750.41
2022-12-08T02:17:01.825Z,97753.00
2022-12-08T02:20:01.704Z,97744.34
2022-12-08T02:22:44.536Z,97741.75
2022-12-08T02:25:15.309Z,97743.41
2022-12-08T02:28:52.964Z,97736.53
2022-12-08T02:31:22.193Z,97732.16
2022-12-08T02:34:10.417Z,97734.78
2022-12-08T02:36:55.891Z,97735.63
2022-12-08T02:39:35.101Z,97725.25
2022-12-08T02:42:43.718Z,97736.53
2022-12-08T02:45:17.416Z,97723.56
2022-12-08T02:47:44.991Z,97733.94
2022-12-08T02:50:12.627Z,97730.50
2022-12-08T02:52:45.016Z,97726.19
2022-12-08T02:55:20.591Z,97725.34
2022-12-08T02:58:24.272Z,97721.91
2022-12-08T03:01:11.122Z,97730.56
2022-12-08T03:03:46.945Z,97716.72
2022-12-08T03:06:28.722Z,97719.38
2022-12-08T03:08:57.900Z,97722.84
2022-12-08T03:11:38.315Z,97722.84
2022-12-08T03:14:07.866Z,97721.97
2022-12-08T03:16:38.362Z,97723.69
2022-12-08T03:19:18.645Z,97718.50
2022-12-08T03:21:49.320Z,97716.78
2022-12-08T03:24:17.522Z,97712.47
2022-12-08T03:26:52.106Z,97711.59
2022-12-08T03:29:19.061Z,97702.94
2022-12-08T03:31:53.404Z,97699.47
2022-12-08T03:34:21.373Z,97697.81
2022-12-08T03:36:48.006Z,97690.88
2022-12-08T03:39:15.050Z,97689.16
2022-12-08T03:41:41.680Z,97680.56
2022-12-08T03:44:08.246Z,97680.56
2022-12-08T03:46:34.951Z,97688.34
2022-12-08T03:49:01.503Z,97678.84
2022-12-08T03:51:28.096Z,97673.63
2022-12-08T03:53:54.744Z,97672.78
2022-12-08T03:56:34.425Z,97668.47
2022-12-08T03:59:01.160Z,97675.38
2022-12-08T04:01:27.945Z,97670.22
2022-12-08T04:03:54.888Z,97668.50
2022-12-08T04:06:22.626Z,97677.13
2022-12-08T04:08:50.504Z,97669.34
2022-12-08T04:11:18.121Z,97669.31
2022-12-08T04:13:45.164Z,97670.19
2022-12-08T04:16:21.987Z,97663.28
2022-12-08T04:18:48.962Z,97666.75
2022-12-08T04:21:15.877Z,97671.06
2022-12-08T04:23:42.982Z,97668.53
2022-12-08T04:26:10.052Z,97668.50
2022-12-08T04:28:37.147Z,97666.78
2022-12-08T04:31:04.383Z,97658.13
2022-12-08T04:33:31.199Z,97657.25
2022-12-08T04:35:57.831Z,97649.47
2022-12-08T04:38:24.883Z,97655.53
2022-12-08T04:40:51.486Z,97653.00
2022-12-08T04:43:18.066Z,97646.94
2022-12-08T04:45:44.753Z,97641.72
2022-12-08T04:48:13.379Z,97644.25
2022-12-08T04:50:41.948Z,97634.81
2022-12-08T04:53:09.711Z,97631.31
2022-12-08T04:55:45.463Z,97636.50
2022-12-08T04:58:16.881Z,97629.63
2022-12-08T05:00:44.200Z,97629.66
2022-12-08T05:03:11.013Z,97635.69
2022-12-08T05:05:37.737Z,97635.69
2022-12-08T05:08:05.010Z,97639.19
2022-12-08T05:10:32.905Z,97634.00
2022-12-08T05:13:00.157Z,97635.72
2022-12-08T05:15:26.950Z,97630.59
2022-12-08T05:17:53.675Z,97638.31
2022-12-08T05:20:20.427Z,97630.59
2022-12-08T05:22:47.232Z,97632.34
2022-12-08T05:25:15.161Z,97630.59
2022-12-08T05:27:43.148Z,97635.78
2022-12-08T05:30:09.890Z,97632.34
2022-12-08T05:32:36.510Z,97629.75
2022-12-08T05:35:03.154Z,97623.69
2022-12-08T05:37:29.786Z,97622.00
2022-12-08T05:39:56.369Z,97635.84
2022-12-08T05:42:25.023Z,97629.78
2022-12-08T05:44:51.984Z,97625.50
2022-12-08T05:47:18.571Z,97628.94
2022-12-08T05:49:45.256Z,97635.84
2022-12-08T05:52:11.922Z,97622.03
2022-12-08T05:54:38.805Z,97628.97
2022-12-08T05:57:05.447Z,97616.00
2022-12-08T05:59:32.063Z,97627.22
2022-12-08T06:01:58.820Z,97622.88
2022-12-08T06:04:25.464Z,97624.63
2022-12-08T06:06:52.474Z,97626.34
2022-12-08T06:09:19.156Z,97620.28
2022-12-08T06:11:47.279Z,97616.84
2022-12-08T06:14:14.300Z,97619.41
2022-12-08T06:16:40.995Z,97609.88
2022-12-08T06:19:07.837Z,97620.28
2022-12-08T06:21:34.499Z,97622.03
2022-12-08T06:24:01.187Z,97616.88
2022-12-08T06:26:27.808Z,97620.28
2022-12-08T06:28:54.599Z,97615.13
2022-12-08T06:31:24.344Z,97613.44
2022-12-08T06:33:51.376Z,97615.97
2022-12-08T06:36:20.028Z,97605.63
2022-12-08T06:38:47.114Z,97606.47
2022-12-08T06:41:13.859Z,97617.69
2022-12-08T06:43:41.368Z,97616.81
2022-12-08T06:46:11.492Z,97611.59
2022-12-08T06:48:38.178Z,97618.53
2022-12-08T06:51:17.208Z,97626.31
2022-12-08T06:53:44.292Z,97624.56
2022-12-08T06:56:12.157Z,97624.53
2022-12-08T06:58:39.285Z,97616.72
2022-12-08T07:01:08.550Z,97624.47
2022-12-08T07:03:36.344Z,97621.88
2022-12-08T07:06:04.284Z,97627.03
2022-12-08T07:08:32.233Z,97627.88
2022-12-08T07:10:59.020Z,97630.53
2022-12-08T07:13:25.901Z,97627.06
2022-12-08T07:15:52.621Z,97621.84
2022-12-08T07:18:19.163Z,97605.44
2022-12-08T07:20:46.053Z,97601.97
2022-12-08T07:23:12.714Z,97602.78
2022-12-08T07:25:39.398Z,97611.38
2022-12-08T07:28:12.307Z,97607.06
2022-12-08T07:30:39.858Z,97608.78
2022-12-08T07:33:06.790Z,97616.56
2022-12-08T07:35:35.192Z,97607.94
2022-12-08T07:38:03.444Z,97617.44
2022-12-08T07:40:30.146Z,97613.09
2022-12-08T07:42:56.868Z,97614.81
2022-12-08T07:45:29.774Z,97621.72
2022-12-08T07:47:58.130Z,97616.53
2022-12-08T07:50:24.947Z,97618.22
2022-12-08T07:52:51.897Z,97621.72
2022-12-08T07:55:18.660Z,97622.53
2022-12-08T07:57:45.430Z,97625.13
2022-12-08T08:00:12.749Z,97613.91
2022-12-08T08:02:40.022Z,97618.16
2022-12-08T08:05:07.532Z,97628.53
2022-12-08T08:07:34.528Z,97614.72
2022-12-08T08:10:01.715Z,97621.63
2022-12-08T08:12:32.575Z,97609.50
2022-12-08T08:15:01.764Z,97606.94
2022-12-08T08:17:30.024Z,97604.28
2022-12-08T08:19:57.306Z,97602.53
2022-12-08T08:22:26.143Z,97604.25
2022-12-08T08:24:53.412Z,97603.38
2022-12-08T08:27:21.205Z,97606.00
2022-12-08T08:29:48.062Z,97611.16
2022-12-08T08:32:17.694Z,97614.66
2022-12-08T08:35:33.453Z,97611.16
2022-12-08T08:38:04.535Z,97614.59
2022-12-08T08:40:31.858Z,97618.03
2022-12-08T08:43:04.107Z,97612.00
2022-12-08T08:45:40.270Z,97616.31
2022-12-08T08:48:20.834Z,97614.56
2022-12-08T08:50:51.161Z,97614.50
2022-12-08T08:53:30.204Z,97603.19
2022-12-08T08:56:02.523Z,97609.19
2022-12-08T08:58:41.334Z,97613.53
2022-12-08T09:01:18.990Z,97610.06
2022-12-08T09:03:57.309Z,97613.47
2022-12-08T09:06:28.343Z,97609.97
2022-12-08T09:08:58.471Z,97612.56
2022-12-08T09:11:25.362Z,97612.50
2022-12-08T09:13:53.801Z,97608.09
2022-12-08T09:16:21.177Z,97607.25
2022-12-08T09:18:51.470Z,97608.09
2022-12-08T09:21:22.915Z,97606.25
2022-12-08T09:23:51.316Z,97614.88
2022-12-08T09:26:18.627Z,97608.00
2022-12-08T09:28:46.911Z,97611.38
2022-12-08T09:31:14.698Z,97602.63
2022-12-08T09:33:42.180Z,97612.97
2022-12-08T09:36:10.702Z,97597.41
2022-12-08T09:38:38.313Z,97593.03
2022-12-08T09:41:36.856Z,97590.31
2022-12-08T09:44:20.387Z,97582.59
2022-12-08T09:46:51.702Z,97583.41
2022-12-08T09:49:24.010Z,97586.81
2022-12-08T09:51:57.688Z,97582.38
2022-12-08T09:54:35.998Z,97579.69
2022-12-08T09:57:11.220Z,97577.09
2022-12-08T09:59:38.133Z,97575.38
2022-12-08T10:02:20.183Z,97563.25
2022-12-08T10:04:47.353Z,97568.44
2022-12-08T10:07:21.271Z,97565.75
2022-12-08T10:10:29.361Z,97559.59
2022-12-08T10:13:22.319Z,97555.25
2022-12-08T10:16:19.047Z,97551.91
2022-12-08T10:18:57.953Z,97547.63
2022-12-08T10:21:28.936Z,97537.16
2022-12-08T10:24:02.876Z,97538.00
2022-12-08T10:26:32.784Z,97536.34
2022-12-08T10:29:02.959Z,97537.22
2022-12-08T10:31:30.910Z,97525.13
2022-12-08T10:34:00.578Z,97528.69
2022-12-08T10:36:56.238Z,97530.25
2022-12-08T10:39:34.283Z,97531.97
2022-12-08T10:42:21.543Z,97519.09
2022-12-08T10:44:54.263Z,97521.63
2022-12-08T10:47:22.486Z,97510.44
2022-12-08T10:50:26.354Z,97516.56
2022-12-08T10:52:59.495Z,97509.56
2022-12-08T10:55:26.632Z,97511.25
2022-12-08T10:57:53.642Z,97507.59
2022-12-08T11:00:23.679Z,97514.31
2022-12-08T11:03:22.578Z,97509.88
2022-12-08T11:05:49.764Z,97509.81
2022-12-08T11:08:17.182Z,97514.06
2022-12-08T11:10:45.370Z,97501.94
2022-12-08T11:13:42.247Z,97496.66
2022-12-08T11:16:11.885Z,97491.41
2022-12-08T11:18:48.285Z,97492.25
2022-12-08T11:21:19.957Z,97499.41
2022-12-08T11:23:49.933Z,97497.63
2022-12-08T11:26:32.092Z,97494.25
2022-12-08T11:28:58.972Z,97488.13
2022-12-08T11:31:44.843Z,97495.16
2022-12-08T11:34:20.880Z,97480.38
2022-12-08T11:36:48.972Z,97466.53
2022-12-08T11:39:15.942Z,97479.53
2022-12-08T11:41:45.981Z,97477.72
2022-12-08T11:44:24.808Z,97469.31
2022-12-08T11:47:18.270Z,97472.66
2022-12-08T11:52:30.892Z,97481.25
2022-12-08T11:55:15.641Z,97475.34
2022-12-08T11:57:42.295Z,97476.88
2022-12-08T12:00:16.711Z,97478.44
2022-12-08T12:02:48.925Z,97475.03
2022-12-08T12:06:05.472Z,97473.34
2022-12-08T12:08:24.537Z,97475.00
2022-12-08T12:11:39.959Z,97477.72
2022-12-08T12:14:34.752Z,97472.56
2022-12-08T12:17:07.318Z,97463.13
2022-12-08T12:19:39.627Z,97466.63
2022-12-08T12:22:19.433Z,97463.78
2022-12-08T12:24:49.983Z,97460.47
2022-12-08T12:27:16.669Z,97455.34
2022-12-08T12:29:59.232Z,97459.56
2022-12-08T12:32:39.741Z,97455.13
2022-12-08T12:35:17.975Z,97452.09
2022-12-08T12:37:44.890Z,97446.25
2022-12-08T12:40:11.891Z,97451.31
2022-12-08T12:42:45.683Z,97459.94
2022-12-08T12:45:18.380Z,97453.88
2022-12-08T12:47:55.935Z,97448.63
2022-12-08T12:50:32.390Z,97449.50
2022-12-08T12:53:17.393Z,97446.09
2022-12-08T12:55:58.948Z,97441.88
2022-12-08T12:58:28.593Z,97446.09
2022-12-08T13:01:10.447Z,97441.97
2022-12-08T13:03:40.443Z,97448.06
2022-12-08T13:06:14.734Z,97445.47
2022-12-08T13:08:51.330Z,97444.47
2022-12-08T13:11:18.148Z,97446.41
2022-12-08T13:14:03.666Z,97443.78
2022-12-08T13:16:37.990Z,97441.28
2022-12-08T13:19:12.004Z,97446.50
2022-12-08T13:21:39.795Z,97444.03
2022-12-08T13:24:20.645Z,97448.28
2022-12-08T13:27:05.766Z,97448.31
2022-12-08T13:29:33.957Z,97437.81
2022-12-08T13:32:07.257Z,97439.56
2022-12-08T13:34:45.865Z,97438.00
2022-12-08T13:37:12.506Z,97439.78
2022-12-08T13:39:39.062Z,97432.84
2022-12-08T13:42:25.355Z,97440.88
2022-12-08T13:45:39.677Z,97441.81
2022-12-08T13:50:31.304Z,97448.66
2022-12-08T13:57:29.398Z,97447.00
2022-12-08T14:00:05.088Z,97458.06
2022-12-08T14:02:40.783Z,97452.81
2022-12-08T14:05:26.316Z,97451.97
2022-12-08T14:07:59.137Z,97452.16
2022-12-08T14:10:32.079Z,97458.13
2022-12-08T14:13:05.687Z,97451.97
2022-12-08T14:15:37.901Z,97452.88
2022-12-08T14:18:05.810Z,97460.63
2022-12-08T14:20:51.964Z,97457.13
2022-12-08T14:23:21.685Z,97451.16
2022-12-08T14:25:48.646Z,97453.84
2022-12-08T14:28:15.342Z,97454.75
2022-12-08T14:30:42.428Z,97451.31
2022-12-08T14:33:15.077Z,97452.22
2022-12-08T14:35:42.084Z,97460.06
2022-12-08T14:38:16.299Z,97455.63
2022-12-08T14:40:48.781Z,97458.31
2022-12-08T14:43:20.474Z,97458.38
2022-12-08T14:45:47.968Z,97454.13
2022-12-08T14:48:36.486Z,97456.66
2022-12-08T14:51:20.509Z,97457.47
2022-12-08T14:54:00.083Z,97457.53
2022-12-08T14:56:33.443Z,97472.31
2022-12-08T14:59:15.962Z,97471.41
2022-12-08T15:01:43.943Z,97474.13
2022-12-08T15:04:16.877Z,97466.34
2022-12-08T15:07:07.544Z,97467.22
2022-12-08T15:09:39.861Z,97467.13
2022-12-08T15:12:12.546Z,97467.28
2022-12-08T15:15:09.637Z,97464.59
2022-12-08T15:17:50.195Z,97463.84
2022-12-08T15:20:34.862Z,97468.19
2022-12-08T15:23:02.574Z,97469.13
2022-12-08T15:25:29.320Z,97472.50
2022-12-08T15:27:58.742Z,97465.69
2022-12-08T15:30:26.580Z,97468.34
2022-12-08T15:32:54.505Z,97475.25
2022-12-08T15:35:21.470Z,97472.75
2022-12-08T15:37:48.219Z,97474.47
2022-12-08T15:40:20.870Z,97462.31
2022-12-08T15:42:48.210Z,97473.66
2022-12-08T15:45:16.469Z,97470.22
2022-12-08T15:47:44.354Z,97460.66
2022-12-08T15:50:16.948Z,97462.41
2022-12-08T15:52:43.956Z,97462.41
2022-12-08T15:55:15.810Z,97472.91
2022-12-08T16:00:53.498Z,97475.53
2022-12-08T16:09:14.178Z,97460.81
2022-12-08T16:12:09.526Z,97470.34
2022-12-08T16:17:25.322Z,97468.63
2022-12-08T16:19:52.143Z,97471.28
2022-12-08T16:25:18.741Z,97462.56
2022-12-08T16:30:34.535Z,97471.22
2022-12-08T16:33:01.262Z,97475.53
2022-12-08T16:35:28.125Z,97468.69
2022-12-08T16:37:54.692Z,97478.31
2022-12-08T16:40:21.654Z,97474.75
2022-12-08T16:42:50.322Z,97477.38
2022-12-08T16:45:20.060Z,97474.81
2022-12-08T16:47:49.580Z,97472.28
2022-12-08T16:50:28.968Z,97474.91
2022-12-08T16:52:58.621Z,97468.78
2022-12-08T16:55:25.671Z,97465.38
2022-12-08T16:57:52.647Z,97475.84
2022-12-08T17:00:24.793Z,97475.84
2022-12-08T17:02:52.015Z,97481.94
2022-12-08T17:05:21.382Z,97478.38
2022-12-08T17:07:50.362Z,97481.09
2022-12-08T17:10:20.231Z,97482.81
2022-12-08T17:12:47.266Z,97483.59
2022-12-08T17:15:17.011Z,97483.56
2022-12-08T17:17:43.712Z,97481.94
2022-12-08T17:20:16.512Z,97482.75
2022-12-08T17:22:44.663Z,97475.00
2022-12-08T17:25:11.672Z,97474.94
2022-12-08T17:27:39.713Z,97480.16
2022-12-08T17:30:08.662Z,97468.78
2022-12-08T17:32:35.662Z,97473.19
2022-12-08T17:35:02.838Z,97467.22
2022-12-08T17:37:29.871Z,97475.91
2022-12-08T17:39:56.501Z,97475.06
2022-12-08T17:42:26.159Z,97478.50
2022-12-08T17:44:53.638Z,97476.75
2022-12-08T17:47:20.625Z,97485.44
2022-12-08T17:49:47.211Z,97482.88
2022-12-08T17:52:13.921Z,97483.75
2022-12-08T17:54:40.658Z,97491.50
2022-12-08T17:57:07.333Z,97490.69
2022-12-08T17:59:34.020Z,97485.53
2022-12-08T18:02:01.638Z,97479.38
2022-12-08T18:04:29.050Z,97486.38
2022-12-08T18:06:58.311Z,97486.38
2022-12-08T18:09:25.037Z,97489.81
2022-12-08T18:11:51.779Z,97489.03
2022-12-08T18:14:18.455Z,97486.44
2022-12-08T18:16:46.950Z,97499.44
2022-12-08T18:19:15.183Z,97484.72
2022-12-08T18:21:42.876Z,97501.22
2022-12-08T18:24:17.177Z,97502.91
2022-12-08T18:26:43.855Z,97498.63
2022-12-08T18:29:10.536Z,97513.31
2022-12-08T18:31:37.252Z,97512.47
2022-12-08T18:34:03.952Z,97507.28
2022-12-08T18:36:30.660Z,97512.47
2022-12-08T18:38:57.313Z,97513.31
2022-12-08T18:41:26.191Z,97513.22
2022-12-08T18:43:54.589Z,97517.63
2022-12-08T18:46:21.897Z,97514.09
2022-12-08T18:48:50.408Z,97517.63
2022-12-08T18:51:19.639Z,97515.84
2022-12-08T18:53:47.588Z,97516.78
2022-12-08T18:56:31.906Z,97518.50
2022-12-08T18:59:03.501Z,97520.22
2022-12-08T19:01:32.314Z,97521.97
2022-12-08T19:06:47.131Z,97535.78
2022-12-08T19:09:14.243Z,97534.06
2022-12-08T19:11:41.810Z,97536.63
2022-12-08T19:14:09.452Z,97526.25
2022-12-08T19:16:36.292Z,97533.19
2022-12-08T19:19:03.999Z,97528.06
2022-12-08T19:21:31.087Z,97533.22
2022-12-08T19:23:58.738Z,97528.97
2022-12-08T19:26:27.721Z,97531.56
2022-12-08T19:28:54.561Z,97528.06
2022-12-08T19:31:21.350Z,97540.22
2022-12-08T19:33:48.178Z,97533.28
2022-12-08T19:36:17.954Z,97532.50
2022-12-08T19:39:03.323Z,97538.53
2022-12-08T19:41:49.107Z,97537.66
2022-12-08T19:44:32.931Z,97528.13
2022-12-08T19:47:00.646Z,97541.13
2022-12-08T19:49:27.535Z,97540.31
2022-12-08T19:51:54.347Z,97540.31
2022-12-08T19:54:20.982Z,97532.53
2022-12-08T19:56:47.806Z,97531.66
2022-12-08T19:59:15.844Z,97534.31
2022-12-08T20:01:44.033Z,97529.97
2022-12-08T20:04:14.381Z,97521.34
2022-12-08T20:06:40.951Z,97524.78
2022-12-08T20:09:08.283Z,97533.44
2022-12-08T20:11:34.910Z,97537.78
2022-12-08T20:14:01.577Z,97538.66
2022-12-08T20:16:28.210Z,97541.25
2022-12-08T20:18:54.922Z,97547.28
2022-12-08T20:21:21.632Z,97545.59
2022-12-08T20:23:49.932Z,97546.47
2022-12-08T20:26:18.883Z,97551.72
2022-12-08T20:28:45.711Z,97548.22
2022-12-08T20:31:23.683Z,97549.97
2022-12-08T20:33:50.794Z,97554.28
2022-12-08T20:36:19.217Z,97560.41
2022-12-08T20:38:47.290Z,97564.75
2022-12-08T20:41:16.154Z,97550.91
2022-12-08T20:43:47.513Z,97552.66
2022-12-08T20:46:16.333Z,97557.06
2022-12-08T20:48:44.222Z,97554.38
2022-12-08T20:51:15.864Z,97554.34
2022-12-08T20:53:43.702Z,97557.91
2022-12-08T20:56:17.961Z,97552.72
2022-12-08T20:58:45.430Z,97554.50
2022-12-08T21:01:14.090Z,97550.16
2022-12-08T21:03:41.447Z,97553.66
2022-12-08T21:06:08.921Z,97553.66
2022-12-08T21:08:36.547Z,97553.66
2022-12-08T21:11:04.399Z,97558.03
2022-12-08T21:13:31.486Z,97557.16
2022-12-08T21:15:58.566Z,97568.34
2022-12-08T21:18:26.086Z,97562.31
2022-12-08T21:20:53.270Z,97562.34
2022-12-08T21:23:20.122Z,97564.06
2022-12-08T21:25:47.380Z,97567.50
2022-12-08T21:28:14.177Z,97558.03
2022-12-08T21:30:42.143Z,97558.03
2022-12-08T21:33:08.839Z,97568.41
2022-12-08T21:35:35.718Z,97564.06
2022-12-08T21:38:03.782Z,97571.88
2022-12-08T21:40:30.552Z,97568.38
2022-12-08T21:42:57.304Z,97569.25
2022-12-08T21:45:23.911Z,97561.47
2022-12-08T21:47:50.744Z,97562.31
2022-12-08T21:50:18.540Z,97570.13
2022-12-08T21:52:47.254Z,97564.97
2022-12-08T21:55:16.124Z,97566.69
2022-12-08T21:57:43.173Z,97564.97
2022-12-08T22:00:13.664Z,97568.44
2022-12-08T22:02:40.541Z,97563.19
2022-12-08T22:05:07.834Z,97568.41
2022-12-08T22:07:38.389Z,97560.63
2022-12-08T22:10:07.763Z,97557.19
2022-12-08T22:12:35.916Z,97558.91
2022-12-08T22:15:05.794Z,97568.44
2022-12-08T22:17:36.970Z,97559.78
2022-12-08T22:20:07.656Z,97559.78
2022-12-08T22:22:35.486Z,97561.53
2022-12-08T22:25:04.743Z,97560.69
2022-12-08T22:27:33.810Z,97560.69
2022-12-08T22:30:00.695Z,97554.63
2022-12-08T22:32:27.517Z,97546.00
2022-12-08T22:34:54.444Z,97558.06
2022-12-08T22:37:21.709Z,97557.19
2022-12-08T22:39:48.466Z,97554.66
2022-12-08T22:42:15.553Z,97554.66
2022-12-08T22:44:42.300Z,97551.22
2022-12-08T22:47:09.117Z,97554.63
2022-12-08T22:49:36.975Z,97557.19
2022-12-08T22:52:04.037Z,97555.47
2022-12-08T22:54:31.039Z,97558.13
2022-12-08T22:56:57.656Z,97562.44
2022-12-08T22:59:24.953Z,97559.00
2022-12-08T23:01:51.565Z,97556.41
2022-12-08T23:04:18.677Z,97561.53
2022-12-08T23:06:45.634Z,97559.00
2022-12-08T23:09:12.323Z,97559.88
2022-12-08T23:11:39.452Z,97555.53
2022-12-08T23:14:06.128Z,97556.41
2022-12-08T23:16:33.654Z,97561.59
2022-12-08T23:19:00.471Z,97557.25
2022-12-08T23:21:27.224Z,97551.22
2022-12-08T23:23:54.011Z,97556.41
2022-12-08T23:26:24.299Z,97558.16
2022-12-08T23:28:51.349Z,97552.97
2022-12-08T23:31:18.881Z,97554.69
2022-12-08T23:33:45.819Z,97550.38
2022-12-08T23:36:13.925Z,97554.69
2022-12-08T23:38:40.661Z,97556.41
2022-12-08T23:41:09.141Z,97549.50
2022-12-08T23:43:36.108Z,97548.63
2022-12-08T23:46:03.715Z,97550.41
2022-12-08T23:48:34.659Z,97549.53
2022-12-08T23:51:01.982Z,97546.09
2022-12-08T23:53:33.167Z,97549.53
2022-12-08T23:56:01.875Z,97546.97
2022-12-08T23:58:30.381Z,97553.00
